Stations météo

réclame
Mon MeteoGroup
Grottaglie, Italie (16324): Température de l'air & dewpoint: 14.06.2018 23:00:00 - 20.06.2018 23:00:00 (CEST)Grottaglie, Italie (16324): Vitesse du vent: 14.06.2018 23:00:00 - 20.06.2018 23:00:00 (CEST)Grottaglie, Italie (16324): Direction du vent: 14.06.2018 23:00:00 - 20.06.2018 23:00:00 (CEST)Grottaglie, Italie (16324): visibility: 14.06.2018 23:00:00 - 20.06.2018 23:00:00 (CEST)
Date & Time tt [°C] td [°C] ff [km/h] ff [knt] dd vv [km]
20.06.2018 23:00:00 - - - - - -
20.06.2018 22:00:00 21,0 19,0 9 5 NNE 10
20.06.2018 21:00:00 21,0 20,0 8 4 ENE 10
20.06.2018 20:00:00 23,0 21,0 4 2 W 10
20.06.2018 19:00:00 23,0 20,0 4 2 NE 10
20.06.2018 18:00:00 23,0 20,0 0 0 N 10
20.06.2018 17:00:00 20,0 18,0 9 5 NW 10
20.06.2018 16:00:00 19,0 17,0 18 10 ENE 8
20.06.2018 15:00:00 21,0 18,0 39 21 N 8
20.06.2018 14:00:00 23,0 17,0 18 10 SW 10
20.06.2018 13:00:00 30,0 16,0 11 6 SE 10
20.06.2018 12:00:00 30,0 16,0 8 4 E 10
20.06.2018 11:00:00 29,0 17,0 9 5 E 10
20.06.2018 10:00:00 28,0 18,0 13 7 ENE 10
20.06.2018 09:00:00 27,0 18,0 15 8 NE 10
20.06.2018 08:00:00 25,0 19,0 11 6 N 10
20.06.2018 07:00:00 - - - - - -
20.06.2018 06:00:00 - - - - - -
20.06.2018 05:00:00 - - - - - -
20.06.2018 04:00:00 - - - - - -
20.06.2018 03:00:00 - - - - - -
20.06.2018 02:00:00 - - - - - -
20.06.2018 01:00:00 - - - - - -
20.06.2018 00:00:00 - - - - - -
19.06.2018 23:00:00 - - - - - -
19.06.2018 22:00:00 - - - - - -
19.06.2018 21:00:00 - - - - - -
19.06.2018 20:00:00 27,0 14,0 21 11 NNE 10
19.06.2018 19:00:00 28,0 13,0 24 13 N 10
19.06.2018 18:00:00 29,0 16,0 22 12 NNE 10
19.06.2018 17:00:00 29,0 15,0 24 13 N 10
19.06.2018 16:00:00 29,0 13,0 21 11 N 10
19.06.2018 15:00:00 - - - - - -
19.06.2018 14:00:00 30,0 13,0 24 13 N 10
19.06.2018 13:00:00 30,0 14,0 26 14 NNE 10
19.06.2018 12:00:00 30,0 13,0 22 12 NNE 10
19.06.2018 11:00:00 29,0 15,0 24 13 N 10
19.06.2018 10:00:00 28,0 16,0 26 14 NE 10
19.06.2018 09:00:00 27,0 16,0 28 15 NE 10
19.06.2018 08:00:00 27,0 18,0 21 11 NE 10
19.06.2018 07:00:00 - - - - - -
19.06.2018 06:00:00 - - - - - -
19.06.2018 05:00:00 - - - - - -
19.06.2018 04:00:00 - - - - - -
19.06.2018 03:00:00 - - - - - -
19.06.2018 02:00:00 - - - - - -
19.06.2018 01:00:00 - - - - - -
19.06.2018 00:00:00 - - - - - -
18.06.2018 23:00:00 - - - - - -
18.06.2018 22:00:00 - - - - - -
18.06.2018 21:00:00 - - - - - -
18.06.2018 20:00:00 26,0 18,0 21 11 N 10
18.06.2018 19:00:00 28,0 16,0 21 11 N 10
18.06.2018 18:00:00 30,0 15,0 15 8 N 10
18.06.2018 17:00:00 29,0 15,0 16 9 N 10
18.06.2018 16:00:00 30,0 14,0 16 9 N 10
18.06.2018 15:00:00 30,0 14,0 18 10 NNE 10
18.06.2018 14:00:00 30,0 16,0 13 7 NNE 10
18.06.2018 13:00:00 30,0 17,0 18 10 NNE 10
18.06.2018 12:00:00 29,0 16,0 16 9 N 10
18.06.2018 11:00:00 28,0 17,0 15 8 N 10
18.06.2018 10:00:00 27,0 16,0 15 8 N 10
18.06.2018 09:00:00 26,0 15,0 13 7 NW 10
18.06.2018 08:00:00 24,0 16,0 5 3 - 10
18.06.2018 07:00:00 - - - - - -
18.06.2018 06:00:00 - - - - - -
18.06.2018 05:00:00 - - - - - -
18.06.2018 04:00:00 - - - - - -
18.06.2018 03:00:00 - - - - - -
18.06.2018 02:00:00 - - - - - -
18.06.2018 01:00:00 - - - - - -
18.06.2018 00:00:00 - - - - - -
17.06.2018 23:00:00 - - - - - -
17.06.2018 22:00:00 - - - - - -
17.06.2018 21:00:00 - - - - - -
17.06.2018 20:00:00 26,0 16,0 16 9 NNE 10
17.06.2018 19:00:00 27,0 16,0 13 7 NNE 10
17.06.2018 18:00:00 28,0 16,0 21 11 NNE 10
17.06.2018 17:00:00 27,0 17,0 5 3 WNW 10
17.06.2018 16:00:00 28,0 16,0 11 6 W 10
17.06.2018 15:00:00 28,0 15,0 11 6 N 10
17.06.2018 14:00:00 29,0 15,0 22 12 N 10
17.06.2018 13:00:00 29,0 16,0 18 10 NNE 10
17.06.2018 12:00:00 28,0 16,0 16 9 N 10
17.06.2018 11:00:00 27,0 16,0 15 8 N 10
17.06.2018 10:00:00 25,0 17,0 5 3 W 10
17.06.2018 09:00:00 24,0 16,0 9 5 WNW 10
17.06.2018 08:00:00 24,0 16,0 8 4 WNW 10
17.06.2018 07:00:00 - - - - - -
17.06.2018 06:00:00 - - - - - -
17.06.2018 05:00:00 - - - - - -
17.06.2018 04:00:00 - - - - - -
17.06.2018 03:00:00 - - - - - -
17.06.2018 02:00:00 - - - - - -
17.06.2018 01:00:00 - - - - - -
17.06.2018 00:00:00 - - - - - -
16.06.2018 23:00:00 - - - - - -
16.06.2018 22:00:00 - - - - - -
16.06.2018 21:00:00 - - - - - -
16.06.2018 20:00:00 24,0 15,0 8 4 NNW 10
16.06.2018 19:00:00 26,0 16,0 18 10 N 10
16.06.2018 18:00:00 27,0 16,0 22 12 NNW 10
16.06.2018 17:00:00 27,0 15,0 24 13 NNW 10
16.06.2018 16:00:00 27,0 15,0 21 11 N 10
16.06.2018 15:00:00 27,0 15,0 24 13 N 10
16.06.2018 14:00:00 28,0 16,0 24 13 N 10
16.06.2018 13:00:00 26,0 16,0 24 13 N 10
16.06.2018 12:00:00 25,0 17,0 22 12 NNW 10
16.06.2018 11:00:00 24,0 19,0 8 4 N 10
16.06.2018 10:00:00 21,0 19,0 0 0 N 10
16.06.2018 09:00:00 20,0 18,0 21 11 N 10
16.06.2018 08:00:00 20,0 18,0 24 13 N 10
16.06.2018 07:00:00 - - - - - -
16.06.2018 06:00:00 - - - - - -
16.06.2018 05:00:00 - - - - - -
16.06.2018 04:00:00 - - - - - -
16.06.2018 03:00:00 - - - - - -
16.06.2018 02:00:00 - - - - - -
16.06.2018 01:00:00 - - - - - -
16.06.2018 00:00:00 - - - - - -
15.06.2018 23:00:00 - - - - - -
15.06.2018 22:00:00 - - - - - -
15.06.2018 21:00:00 - - - - - -
15.06.2018 20:00:00 23,0 16,0 9 5 NW 10
15.06.2018 19:00:00 23,0 17,0 22 12 NNW 10
15.06.2018 18:00:00 25,0 17,0 26 14 N 10
15.06.2018 17:00:00 26,0 16,0 28 15 N 10
15.06.2018 16:00:00 26,0 15,0 16 9 N 10
15.06.2018 15:00:00 25,0 15,0 15 8 N 10
15.06.2018 14:00:00 26,0 17,0 8 4 W 10
15.06.2018 13:00:00 23,0 17,0 9 5 NW 10
15.06.2018 12:00:00 22,0 17,0 13 7 N 10
15.06.2018 11:00:00 19,0 17,0 16 9 N 9
15.06.2018 10:00:00 22,0 18,0 13 7 NNE 10
15.06.2018 09:00:00 22,0 18,0 8 4 N 10
15.06.2018 08:00:00 20,0 17,0 8 4 NW 10
15.06.2018 07:00:00 - - - - - -
15.06.2018 06:00:00 - - - - - -
15.06.2018 05:00:00 - - - - - -
15.06.2018 04:00:00 - - - - - -
15.06.2018 03:00:00 - - - - - -
15.06.2018 02:00:00 - - - - - -
15.06.2018 01:00:00 - - - - - -
15.06.2018 00:00:00 - - - - - -
14.06.2018 23:00:00 - - - - - -

tt = Température de l'air
td = dewpoint
ff = Vitesse du vent
dd = Direction du vent
vv = visibility

stations d'obs. à proximité